sensor_id;sensor_type;location;lat;lon;timestamp;pressure;altitude;pressure_sealevel;temperature;humidity
43071;BME280;36278;47.952;21.714;2023-03-20T00:03:48;100516.59;;;8.54;60.40
43071;BME280;36278;47.952;21.714;2023-03-20T00:06:25;100510.69;;;8.51;61.08
43071;BME280;36278;47.952;21.714;2023-03-20T00:08:53;100505.91;;;8.43;60.53
43071;BME280;36278;47.952;21.714;2023-03-20T00:11:31;100514.44;;;8.47;59.51
43071;BME280;36278;47.952;21.714;2023-03-20T00:14:08;100507.41;;;8.47;60.46
43071;BME280;36278;47.952;21.714;2023-03-20T00:16:37;100507.09;;;8.52;60.95
43071;BME280;36278;47.952;21.714;2023-03-20T00:19:04;100503.50;;;8.53;59.77
43071;BME280;36278;47.952;21.714;2023-03-20T00:21:30;100496.63;;;8.50;58.69
43071;BME280;36278;47.952;21.714;2023-03-20T00:23:56;100494.84;;;8.51;60.22
43071;BME280;36278;47.952;21.714;2023-03-20T00:26:31;100495.97;;;8.47;60.00
43071;BME280;36278;47.952;21.714;2023-03-20T00:28:57;100501.19;;;8.48;59.33
43071;BME280;36278;47.952;21.714;2023-03-20T00:31:28;100489.56;;;8.51;60.31
43071;BME280;36278;47.952;21.714;2023-03-20T00:33:57;100489.28;;;8.55;58.74
43071;BME280;36278;47.952;21.714;2023-03-20T00:36:23;100496.50;;;8.66;58.45
43071;BME280;36278;47.952;21.714;2023-03-20T00:38:49;100485.84;;;8.67;58.86
43071;BME280;36278;47.952;21.714;2023-03-20T00:44:01;100480.53;;;8.67;60.32
43071;BME280;36278;47.952;21.714;2023-03-20T00:46:31;100481.59;;;8.65;58.91
43071;BME280;36278;47.952;21.714;2023-03-20T00:48:58;100481.59;;;8.65;59.31
43071;BME280;36278;47.952;21.714;2023-03-20T00:51:23;100469.97;;;8.67;58.38
43071;BME280;36278;47.952;21.714;2023-03-20T00:53:48;100473.25;;;8.71;56.28
43071;BME280;36278;47.952;21.714;2023-03-20T00:56:35;100476.56;;;8.75;56.70
43071;BME280;36278;47.952;21.714;2023-03-20T00:59:03;100467.78;;;8.74;58.22
43071;BME280;36278;47.952;21.714;2023-03-20T01:01:29;100467.13;;;8.70;58.44
43071;BME280;36278;47.952;21.714;2023-03-20T01:03:58;100467.25;;;8.69;57.75
43071;BME280;36278;47.952;21.714;2023-03-20T01:06:23;100467.06;;;8.72;59.02
43071;BME280;36278;47.952;21.714;2023-03-20T01:08:49;100464.50;;;8.70;57.90
43071;BME280;36278;47.952;21.714;2023-03-20T01:11:20;100468.63;;;8.75;58.54
43071;BME280;36278;47.952;21.714;2023-03-20T01:13:47;100464.50;;;8.70;59.26
43071;BME280;36278;47.952;21.714;2023-03-20T01:16:22;100459.41;;;8.67;60.63
43071;BME280;36278;47.952;21.714;2023-03-20T01:18:49;100450.09;;;8.62;60.16
43071;BME280;36278;47.952;21.714;2023-03-20T01:21:15;100455.94;;;8.67;60.83
43071;BME280;36278;47.952;21.714;2023-03-20T01:23:41;100447.16;;;8.66;60.06
43071;BME280;36278;47.952;21.714;2023-03-20T01:28:41;100449.16;;;8.63;60.24
43071;BME280;36278;47.952;21.714;2023-03-20T01:31:08;100459.81;;;8.61;60.11
43071;BME280;36278;47.952;21.714;2023-03-20T01:33:33;100460.59;;;8.63;59.50
43071;BME280;36278;47.952;21.714;2023-03-20T01:35:59;100462.06;;;8.67;59.15
43071;BME280;36278;47.952;21.714;2023-03-20T01:38:26;100450.66;;;8.67;59.03
43071;BME280;36278;47.952;21.714;2023-03-20T01:43:35;100455.19;;;8.65;58.32
43071;BME280;36278;47.952;21.714;2023-03-20T01:46:09;100454.44;;;8.63;60.37
43071;BME280;36278;47.952;21.714;2023-03-20T01:51:27;100447.66;;;8.59;60.35
43071;BME280;36278;47.952;21.714;2023-03-20T01:56:59;100434.41;;;8.46;62.05
43071;BME280;36278;47.952;21.714;2023-03-20T01:59:52;100446.47;;;8.50;60.19
43071;BME280;36278;47.952;21.714;2023-03-20T02:02:24;100451.44;;;8.55;59.29
43071;BME280;36278;47.952;21.714;2023-03-20T02:04:55;100447.66;;;8.59;60.45
43071;BME280;36278;47.952;21.714;2023-03-20T02:07:22;100451.25;;;8.58;60.95
43071;BME280;36278;47.952;21.714;2023-03-20T02:09:49;100455.03;;;8.54;62.53
43071;BME280;36278;47.952;21.714;2023-03-20T02:12:15;100449.31;;;8.47;60.84
43071;BME280;36278;47.952;21.714;2023-03-20T02:14:43;100437.53;;;8.38;59.89
43071;BME280;36278;47.952;21.714;2023-03-20T02:17:09;100457.16;;;8.49;61.88
43071;BME280;36278;47.952;21.714;2023-03-20T02:40:23;100445.91;;;8.45;63.03
43071;BME280;36278;47.952;21.714;2023-03-20T02:45:46;100444.03;;;8.47;62.80
43071;BME280;36278;47.952;21.714;2023-03-20T02:54:00;100450.25;;;8.46;61.44
43071;BME280;36278;47.952;21.714;2023-03-20T02:56:40;100448.44;;;8.47;61.85
43071;BME280;36278;47.952;21.714;2023-03-20T02:59:25;100449.41;;;8.46;62.67
43071;BME280;36278;47.952;21.714;2023-03-20T03:02:08;100450.19;;;8.48;63.71
43071;BME280;36278;47.952;21.714;2023-03-20T03:04:42;100452.59;;;8.51;63.32
43071;BME280;36278;47.952;21.714;2023-03-20T03:07:11;100444.97;;;8.46;62.52
43071;BME280;36278;47.952;21.714;2023-03-20T03:09:53;100446.88;;;8.44;61.76
43071;BME280;36278;47.952;21.714;2023-03-20T03:12:27;100451.41;;;8.42;61.45
43071;BME280;36278;47.952;21.714;2023-03-20T03:14:56;100451.09;;;8.47;60.44
43071;BME280;36278;47.952;21.714;2023-03-20T03:17:25;100446.38;;;8.52;58.90
43071;BME280;36278;47.952;21.714;2023-03-20T03:19:57;100438.91;;;8.58;57.47
43071;BME280;36278;47.952;21.714;2023-03-20T03:22:25;100432.72;;;8.45;57.42
43071;BME280;36278;47.952;21.714;2023-03-20T03:24:52;100436.88;;;8.49;58.02
43071;BME280;36278;47.952;21.714;2023-03-20T03:27:37;100441.44;;;8.60;57.30
43071;BME280;36278;47.952;21.714;2023-03-20T03:30:10;100442.50;;;8.57;57.72
43071;BME280;36278;47.952;21.714;2023-03-20T03:32:50;100443.03;;;8.35;58.03
43071;BME280;36278;47.952;21.714;2023-03-20T03:35:20;100453.75;;;8.32;58.25
43071;BME280;36278;47.952;21.714;2023-03-20T03:40:43;100446.50;;;8.22;58.39
43071;BME280;36278;47.952;21.714;2023-03-20T03:43:16;100442.28;;;8.19;59.61
43071;BME280;36278;47.952;21.714;2023-03-20T03:45:48;100445.22;;;8.14;60.59
43071;BME280;36278;47.952;21.714;2023-03-20T03:48:18;100442.66;;;8.13;60.27
43071;BME280;36278;47.952;21.714;2023-03-20T03:50:54;100447.00;;;8.14;60.14
43071;BME280;36278;47.952;21.714;2023-03-20T03:53:26;100443.50;;;8.13;61.85
43071;BME280;36278;47.952;21.714;2023-03-20T03:56:00;100441.72;;;8.14;61.06
43071;BME280;36278;47.952;21.714;2023-03-20T03:58:32;100440.34;;;8.08;60.98
43071;BME280;36278;47.952;21.714;2023-03-20T04:01:01;100446.25;;;8.12;60.40
43071;BME280;36278;47.952;21.714;2023-03-20T04:03:31;100444.34;;;8.14;61.27
43071;BME280;36278;47.952;21.714;2023-03-20T04:05:59;100446.25;;;8.12;61.63
43071;BME280;36278;47.952;21.714;2023-03-20T04:08:26;100442.31;;;8.05;59.23
43071;BME280;36278;47.952;21.714;2023-03-20T04:10:51;100443.72;;;8.10;58.35
43071;BME280;36278;47.952;21.714;2023-03-20T04:13:17;100434.38;;;8.05;58.31
43071;BME280;36278;47.952;21.714;2023-03-20T04:15:43;100440.44;;;8.07;57.70
43071;BME280;36278;47.952;21.714;2023-03-20T04:18:16;100441.28;;;8.07;58.31
43071;BME280;36278;47.952;21.714;2023-03-20T04:20:42;100436.28;;;8.03;58.24
43071;BME280;36278;47.952;21.714;2023-03-20T04:23:08;100436.03;;;7.93;59.05
43071;BME280;36278;47.952;21.714;2023-03-20T04:25:33;100439.97;;;7.86;58.81
43071;BME280;36278;47.952;21.714;2023-03-20T04:27:59;100435.28;;;7.77;58.84
43071;BME280;36278;47.952;21.714;2023-03-20T04:30:24;100433.88;;;7.71;59.07
43071;BME280;36278;47.952;21.714;2023-03-20T04:32:50;100443.41;;;7.74;58.95
43071;BME280;36278;47.952;21.714;2023-03-20T04:35:15;100440.47;;;7.78;59.65
43071;BME280;36278;47.952;21.714;2023-03-20T04:37:41;100440.34;;;7.80;59.37
43071;BME280;36278;47.952;21.714;2023-03-20T04:40:06;100434.44;;;7.76;58.88
43071;BME280;36278;47.952;21.714;2023-03-20T04:42:32;100442.16;;;7.79;58.85
43071;BME280;36278;47.952;21.714;2023-03-20T04:44:58;100447.81;;;7.73;60.57
43071;BME280;36278;47.952;21.714;2023-03-20T04:47:23;100445.94;;;7.75;59.78
43071;BME280;36278;47.952;21.714;2023-03-20T04:49:48;100449.31;;;7.77;60.08
43071;BME280;36278;47.952;21.714;2023-03-20T04:52:14;100455.06;;;7.84;59.21
43071;BME280;36278;47.952;21.714;2023-03-20T04:54:40;100462.59;;;7.90;59.76
43071;BME280;36278;47.952;21.714;2023-03-20T04:57:05;100457.13;;;7.93;60.12
43071;BME280;36278;47.952;21.714;2023-03-20T04:59:31;100450.44;;;7.87;59.86
43071;BME280;36278;47.952;21.714;2023-03-20T05:01:56;100454.75;;;7.88;60.10
43071;BME280;36278;47.952;21.714;2023-03-20T05:04:22;100452.31;;;7.85;61.78
43071;BME280;36278;47.952;21.714;2023-03-20T05:06:47;100454.38;;;7.80;60.48
43071;BME280;36278;47.952;21.714;2023-03-20T05:09:14;100458.72;;;7.81;59.91
43071;BME280;36278;47.952;21.714;2023-03-20T05:11:40;100459.88;;;7.92;60.20
43071;BME280;36278;47.952;21.714;2023-03-20T05:14:06;100460.50;;;7.95;59.04
43071;BME280;36278;47.952;21.714;2023-03-20T05:16:31;100465.69;;;7.97;60.00
43071;BME280;36278;47.952;21.714;2023-03-20T05:18:57;100460.50;;;8.09;59.04
43071;BME280;36278;47.952;21.714;2023-03-20T05:21:23;100455.50;;;8.05;59.95
43071;BME280;36278;47.952;21.714;2023-03-20T05:23:48;100457.97;;;8.08;59.08
43071;BME280;36278;47.952;21.714;2023-03-20T05:26:14;100463.78;;;8.13;59.45
43071;BME280;36278;47.952;21.714;2023-03-20T05:28:40;100454.75;;;8.17;59.79
43071;BME280;36278;47.952;21.714;2023-03-20T05:31:05;100465.28;;;8.17;60.16
43071;BME280;36278;47.952;21.714;2023-03-20T05:33:31;100457.16;;;8.20;59.70
43071;BME280;36278;47.952;21.714;2023-03-20T05:35:56;100453.31;;;8.26;59.65
43071;BME280;36278;47.952;21.714;2023-03-20T05:38:22;100460.44;;;8.38;58.53
43071;BME280;36278;47.952;21.714;2023-03-20T05:40:48;100448.31;;;8.35;58.32
43071;BME280;36278;47.952;21.714;2023-03-20T05:43:14;100456.59;;;8.43;57.65
43071;BME280;36278;47.952;21.714;2023-03-20T05:45:41;100454.84;;;8.57;57.56
43071;BME280;36278;47.952;21.714;2023-03-20T05:48:06;100456.34;;;8.61;57.68
43071;BME280;36278;47.952;21.714;2023-03-20T05:50:32;100461.84;;;8.70;57.39
43071;BME280;36278;47.952;21.714;2023-03-20T05:52:57;100455.31;;;8.76;56.51
43071;BME280;36278;47.952;21.714;2023-03-20T05:55:23;100449.75;;;8.81;57.03
43071;BME280;36278;47.952;21.714;2023-03-20T05:57:48;100453.47;;;8.91;56.72
43071;BME280;36278;47.952;21.714;2023-03-20T06:00:14;100455.59;;;8.98;56.84
43071;BME280;36278;47.952;21.714;2023-03-20T06:02:40;100456.03;;;9.05;56.82
43071;BME280;36278;47.952;21.714;2023-03-20T06:05:06;100464.59;;;9.09;57.36
43071;BME280;36278;47.952;21.714;2023-03-20T06:07:31;100464.19;;;9.15;57.18
43071;BME280;36278;47.952;21.714;2023-03-20T06:09:57;100441.34;;;9.01;57.61
43071;BME280;36278;47.952;21.714;2023-03-20T06:12:23;100457.66;;;9.20;57.06
43071;BME280;36278;47.952;21.714;2023-03-20T06:14:48;100459.97;;;9.25;57.32
43071;BME280;36278;47.952;21.714;2023-03-20T06:17:14;100465.69;;;9.32;57.34
43071;BME280;36278;47.952;21.714;2023-03-20T06:19:39;100466.66;;;9.43;56.69
43071;BME280;36278;47.952;21.714;2023-03-20T06:22:05;100464.25;;;9.53;56.79
43071;BME280;36278;47.952;21.714;2023-03-20T06:24:30;100463.69;;;9.61;57.31
43071;BME280;36278;47.952;21.714;2023-03-20T06:26:55;100461.25;;;9.70;56.56
43071;BME280;36278;47.952;21.714;2023-03-20T06:29:21;100471.50;;;9.75;56.50
43071;BME280;36278;47.952;21.714;2023-03-20T06:31:47;100473.31;;;9.87;56.84
43071;BME280;36278;47.952;21.714;2023-03-20T06:34:12;100471.94;;;9.94;56.56
43071;BME280;36278;47.952;21.714;2023-03-20T06:36:38;100470.31;;;10.04;56.09
43071;BME280;36278;47.952;21.714;2023-03-20T06:39:04;100464.38;;;10.14;55.46
43071;BME280;36278;47.952;21.714;2023-03-20T06:41:29;100462.44;;;10.16;55.68
43071;BME280;36278;47.952;21.714;2023-03-20T06:43:55;100466.06;;;10.15;55.61
43071;BME280;36278;47.952;21.714;2023-03-20T06:46:20;100468.91;;;10.24;55.71
43071;BME280;36278;47.952;21.714;2023-03-20T06:48:46;100463.16;;;10.43;55.08
43071;BME280;36278;47.952;21.714;2023-03-20T06:51:12;100473.69;;;10.56;55.30
43071;BME280;36278;47.952;21.714;2023-03-20T06:53:38;100470.75;;;10.72;54.72
43071;BME280;36278;47.952;21.714;2023-03-20T06:56:06;100471.28;;;10.77;54.07
43071;BME280;36278;47.952;21.714;2023-03-20T06:58:33;100474.03;;;10.75;54.41
43071;BME280;36278;47.952;21.714;2023-03-20T07:00:58;100477.81;;;10.84;54.05
43071;BME280;36278;47.952;21.714;2023-03-20T07:03:24;100474.31;;;10.83;54.36
43071;BME280;36278;47.952;21.714;2023-03-20T07:05:50;100467.22;;;10.84;54.71
43071;BME280;36278;47.952;21.714;2023-03-20T07:08:16;100465.91;;;10.65;55.53
43071;BME280;36278;47.952;21.714;2023-03-20T07:10:42;100471.88;;;10.80;55.36
43071;BME280;36278;47.952;21.714;2023-03-20T07:13:07;100474.53;;;10.80;55.41
43071;BME280;36278;47.952;21.714;2023-03-20T07:15:34;100475.44;;;10.92;55.12
43071;BME280;36278;47.952;21.714;2023-03-20T07:18:00;100475.34;;;11.05;54.72
43071;BME280;36278;47.952;21.714;2023-03-20T07:20:26;100479.00;;;11.15;54.39
43071;BME280;36278;47.952;21.714;2023-03-20T07:22:52;100472.50;;;11.19;55.80
43071;BME280;36278;47.952;21.714;2023-03-20T07:25:18;100462.03;;;11.29;55.52
43071;BME280;36278;47.952;21.714;2023-03-20T07:27:44;100456.28;;;11.35;54.70
43071;BME280;36278;47.952;21.714;2023-03-20T07:30:15;100462.44;;;11.46;55.14
43071;BME280;36278;47.952;21.714;2023-03-20T07:32:41;100453.50;;;11.47;54.71
43071;BME280;36278;47.952;21.714;2023-03-20T07:35:07;100457.50;;;11.64;55.19
43071;BME280;36278;47.952;21.714;2023-03-20T07:37:33;100461.63;;;11.68;55.67
43071;BME280;36278;47.952;21.714;2023-03-20T07:39:59;100462.47;;;11.58;56.06
43071;BME280;36278;47.952;21.714;2023-03-20T07:42:24;100461.88;;;11.65;55.36
43071;BME280;36278;47.952;21.714;2023-03-20T07:44:50;100469.34;;;11.60;55.64
43071;BME280;36278;47.952;21.714;2023-03-20T07:47:15;100451.09;;;11.56;55.32
43071;BME280;36278;47.952;21.714;2023-03-20T07:49:41;100466.88;;;11.81;55.38
43071;BME280;36278;47.952;21.714;2023-03-20T07:52:06;100474.22;;;12.00;53.85
43071;BME280;36278;47.952;21.714;2023-03-20T07:54:32;100477.09;;;12.08;54.51
43071;BME280;36278;47.952;21.714;2023-03-20T07:56:58;100472.50;;;12.10;54.69
43071;BME280;36278;47.952;21.714;2023-03-20T07:59:23;100475.78;;;12.02;53.79
43071;BME280;36278;47.952;21.714;2023-03-20T08:01:49;100477.94;;;12.20;54.30
43071;BME280;36278;47.952;21.714;2023-03-20T08:04:14;100477.19;;;12.40;53.16
43071;BME280;36278;47.952;21.714;2023-03-20T08:06:43;100476.25;;;12.62;52.86
43071;BME280;36278;47.952;21.714;2023-03-20T08:09:09;100477.44;;;12.80;52.86
43071;BME280;36278;47.952;21.714;2023-03-20T08:11:34;100478.00;;;12.95;53.25
43071;BME280;36278;47.952;21.714;2023-03-20T08:14:00;100476.41;;;12.93;51.48
43071;BME280;36278;47.952;21.714;2023-03-20T08:16:25;100471.69;;;12.96;52.88
43071;BME280;36278;47.952;21.714;2023-03-20T08:18:51;100475.53;;;13.03;52.06
43071;BME280;36278;47.952;21.714;2023-03-20T08:21:18;100472.28;;;13.00;51.50
43071;BME280;36278;47.952;21.714;2023-03-20T08:23:43;100479.69;;;13.17;52.89
43071;BME280;36278;47.952;21.714;2023-03-20T08:26:09;100476.81;;;13.09;52.78
43071;BME280;36278;47.952;21.714;2023-03-20T08:28:34;100471.00;;;13.15;52.82
43071;BME280;36278;47.952;21.714;2023-03-20T08:31:00;100467.72;;;13.23;52.83
43071;BME280;36278;47.952;21.714;2023-03-20T08:33:26;100472.09;;;13.44;51.81
43071;BME280;36278;47.952;21.714;2023-03-20T08:35:58;100475.44;;;13.46;51.43
43071;BME280;36278;47.952;21.714;2023-03-20T08:38:24;100486.72;;;13.60;51.79
43071;BME280;36278;47.952;21.714;2023-03-20T08:40:50;100475.88;;;13.52;51.03
43071;BME280;36278;47.952;21.714;2023-03-20T08:43:16;100485.88;;;13.59;50.71
43071;BME280;36278;47.952;21.714;2023-03-20T08:45:41;100480.78;;;13.46;51.33
43071;BME280;36278;47.952;21.714;2023-03-20T08:48:07;100485.19;;;13.36;51.69
43071;BME280;36278;47.952;21.714;2023-03-20T08:50:33;100482.91;;;13.53;51.95
43071;BME280;36278;47.952;21.714;2023-03-20T08:52:59;100487.59;;;13.60;50.84
43071;BME280;36278;47.952;21.714;2023-03-20T08:55:25;100474.78;;;13.54;50.83
43071;BME280;36278;47.952;21.714;2023-03-20T08:57:51;100468.81;;;13.62;50.92
43071;BME280;36278;47.952;21.714;2023-03-20T09:00:19;100471.97;;;13.77;50.31
43071;BME280;36278;47.952;21.714;2023-03-20T09:02:44;100479.28;;;13.84;50.07
43071;BME280;36278;47.952;21.714;2023-03-20T09:05:10;100474.22;;;13.81;49.53
43071;BME280;36278;47.952;21.714;2023-03-20T09:07:36;100475.06;;;13.82;49.96
43071;BME280;36278;47.952;21.714;2023-03-20T09:10:03;100466.69;;;13.86;49.14
43071;BME280;36278;47.952;21.714;2023-03-20T09:12:29;100474.41;;;13.89;49.12
43071;BME280;36278;47.952;21.714;2023-03-20T09:14:57;100467.34;;;14.09;49.48
43071;BME280;36278;47.952;21.714;2023-03-20T09:17:22;100473.56;;;14.29;49.23
43071;BME280;36278;47.952;21.714;2023-03-20T09:19:48;100475.47;;;14.48;48.94
43071;BME280;36278;47.952;21.714;2023-03-20T09:22:14;100471.19;;;14.26;48.43
43071;BME280;36278;47.952;21.714;2023-03-20T09:24:42;100476.38;;;14.27;49.27
43071;BME280;36278;47.952;21.714;2023-03-20T09:27:08;100475.78;;;14.24;48.40
43071;BME280;36278;47.952;21.714;2023-03-20T09:29:33;100469.06;;;14.20;48.15
43071;BME280;36278;47.952;21.714;2023-03-20T09:31:59;100463.00;;;14.58;48.32
43071;BME280;36278;47.952;21.714;2023-03-20T09:34:25;100462.31;;;14.75;48.43
43071;BME280;36278;47.952;21.714;2023-03-20T09:36:51;100467.81;;;14.93;48.02
43071;BME280;36278;47.952;21.714;2023-03-20T09:39:16;100464.69;;;14.98;46.48
43071;BME280;36278;47.952;21.714;2023-03-20T09:41:50;100469.91;;;15.19;45.47
43071;BME280;36278;47.952;21.714;2023-03-20T09:49:39;100467.78;;;15.32;46.26
43071;BME280;36278;47.952;21.714;2023-03-20T09:52:17;100457.53;;;15.27;45.27
43071;BME280;36278;47.952;21.714;2023-03-20T09:54:49;100454.84;;;15.37;44.91
43071;BME280;36278;47.952;21.714;2023-03-20T09:57:26;100449.75;;;15.43;45.04
43071;BME280;36278;47.952;21.714;2023-03-20T10:00:05;100439.63;;;15.47;46.17
43071;BME280;36278;47.952;21.714;2023-03-20T10:02:43;100442.97;;;15.59;46.80
43071;BME280;36278;47.952;21.714;2023-03-20T10:08:19;100438.22;;;16.45;43.81
43071;BME280;36278;47.952;21.714;2023-03-20T10:10:51;100436.78;;;16.50;44.90
43071;BME280;36278;47.952;21.714;2023-03-20T10:18:50;100428.41;;;16.63;42.92
43071;BME280;36278;47.952;21.714;2023-03-20T10:21:31;100429.19;;;16.73;43.22
43071;BME280;36278;47.952;21.714;2023-03-20T10:24:02;100420.38;;;16.63;41.84
43071;BME280;36278;47.952;21.714;2023-03-20T10:26:33;100417.19;;;16.77;42.26
43071;BME280;36278;47.952;21.714;2023-03-20T10:29:04;100423.44;;;17.04;42.00
43071;BME280;36278;47.952;21.714;2023-03-20T10:32:35;100422.91;;;17.26;41.98
43071;BME280;36278;47.952;21.714;2023-03-20T10:34:55;100412.47;;;17.15;41.38
43071;BME280;36278;47.952;21.714;2023-03-20T10:42:29;100417.22;;;17.21;40.55
43071;BME280;36278;47.952;21.714;2023-03-20T10:45:02;100414.63;;;16.94;40.94
43071;BME280;36278;47.952;21.714;2023-03-20T10:47:34;100413.25;;;17.07;42.13
43071;BME280;36278;47.952;21.714;2023-03-20T10:50:05;100414.28;;;17.32;40.82
43071;BME280;36278;47.952;21.714;2023-03-20T10:52:34;100402.22;;;17.28;40.96
43071;BME280;36278;47.952;21.714;2023-03-20T10:55:03;100402.34;;;17.53;40.06
43071;BME280;36278;47.952;21.714;2023-03-20T10:57:33;100395.53;;;17.66;40.79
43071;BME280;36278;47.952;21.714;2023-03-20T11:00:00;100394.41;;;17.69;40.65
43071;BME280;36278;47.952;21.714;2023-03-20T11:02:29;100390.75;;;17.70;40.90
43071;BME280;36278;47.952;21.714;2023-03-20T11:04:55;100390.63;;;17.54;39.66
43071;BME280;36278;47.952;21.714;2023-03-20T11:07:27;100390.72;;;18.04;39.51
43071;BME280;36278;47.952;21.714;2023-03-20T11:12:42;100377.03;;;18.32;38.99
43071;BME280;36278;47.952;21.714;2023-03-20T11:15:32;100369.72;;;18.42;39.42
43071;BME280;36278;47.952;21.714;2023-03-20T11:18:04;100367.50;;;18.29;40.42
43071;BME280;36278;47.952;21.714;2023-03-20T11:20:43;100362.81;;;18.47;39.26
43071;BME280;36278;47.952;21.714;2023-03-20T11:23:14;100367.03;;;18.50;39.22
43071;BME280;36278;47.952;21.714;2023-03-20T11:26:07;100367.22;;;19.05;37.57
43071;BME280;36278;47.952;21.714;2023-03-20T11:28:41;100359.84;;;19.08;38.58
43071;BME280;36278;47.952;21.714;2023-03-20T11:36:36;100351.22;;;19.37;37.03
43071;BME280;36278;47.952;21.714;2023-03-20T11:39:28;100349.50;;;19.60;36.24
43071;BME280;36278;47.952;21.714;2023-03-20T11:41:57;100346.78;;;19.68;36.03
43071;BME280;36278;47.952;21.714;2023-03-20T11:44:31;100341.31;;;20.15;34.91
43071;BME280;36278;47.952;21.714;2023-03-20T11:47:05;100333.00;;;20.25;34.80
43071;BME280;36278;47.952;21.714;2023-03-20T11:49:47;100334.88;;;20.25;34.86
43071;BME280;36278;47.952;21.714;2023-03-20T11:52:20;100329.31;;;20.26;34.44
43071;BME280;36278;47.952;21.714;2023-03-20T11:54:52;100331.97;;;20.57;34.39
43071;BME280;36278;47.952;21.714;2023-03-20T11:57:39;100324.22;;;19.77;35.25
43071;BME280;36278;47.952;21.714;2023-03-20T12:00:16;100323.06;;;20.03;35.15
43071;BME280;36278;47.952;21.714;2023-03-20T12:02:44;100316.81;;;20.10;35.37
43071;BME280;36278;47.952;21.714;2023-03-20T12:05:33;100310.59;;;20.10;34.81
43071;BME280;36278;47.952;21.714;2023-03-20T12:08:07;100319.94;;;19.91;35.92
43071;BME280;36278;47.952;21.714;2023-03-20T12:10:37;100319.53;;;19.79;35.51
43071;BME280;36278;47.952;21.714;2023-03-20T12:13:16;100312.94;;;20.13;35.10
43071;BME280;36278;47.952;21.714;2023-03-20T12:15:53;100304.25;;;20.26;34.72
43071;BME280;36278;47.952;21.714;2023-03-20T12:21:57;100296.47;;;21.29;34.00
43071;BME280;36278;47.952;21.714;2023-03-20T12:24:00;100293.00;;;22.01;32.58
43071;BME280;36278;47.952;21.714;2023-03-20T12:26:34;100300.13;;;21.72;33.25
43071;BME280;36278;47.952;21.714;2023-03-20T12:32:04;100286.06;;;22.49;32.20
43071;BME280;36278;47.952;21.714;2023-03-20T12:34:44;100287.59;;;21.65;34.80
43071;BME280;36278;47.952;21.714;2023-03-20T12:37:12;100277.78;;;21.93;33.37
43071;BME280;36278;47.952;21.714;2023-03-20T12:39:53;100275.38;;;22.41;32.88
43071;BME280;36278;47.952;21.714;2023-03-20T12:42:26;100276.66;;;22.45;32.53
43071;BME280;36278;47.952;21.714;2023-03-20T12:45:16;100281.22;;;22.66;32.25
43071;BME280;36278;47.952;21.714;2023-03-20T12:50:40;100276.25;;;21.69;33.69
43071;BME280;36278;47.952;21.714;2023-03-20T12:53:20;100278.44;;;21.30;34.35
43071;BME280;36278;47.952;21.714;2023-03-20T12:56:20;100273.03;;;21.15;34.38
43071;BME280;36278;47.952;21.714;2023-03-20T13:07:21;100268.28;;;20.27;35.54
43071;BME280;36278;47.952;21.714;2023-03-20T13:10:18;100268.97;;;20.66;35.59
43071;BME280;36278;47.952;21.714;2023-03-20T13:13:13;100271.50;;;20.83;35.19
43071;BME280;36278;47.952;21.714;2023-03-20T13:21:26;100253.16;;;19.80;37.08
43071;BME280;36278;47.952;21.714;2023-03-20T13:24:06;100256.53;;;19.74;37.24
43071;BME280;36278;47.952;21.714;2023-03-20T13:26:41;100252.06;;;20.35;36.37
43071;BME280;36278;47.952;21.714;2023-03-20T13:29:33;100250.50;;;20.63;35.83
43071;BME280;36278;47.952;21.714;2023-03-20T13:32:24;100244.13;;;20.79;36.37
43071;BME280;36278;47.952;21.714;2023-03-20T13:37:48;100236.09;;;20.56;35.74
43071;BME280;36278;47.952;21.714;2023-03-20T13:40:19;100238.94;;;20.92;35.19
43071;BME280;36278;47.952;21.714;2023-03-20T13:45:35;100223.53;;;20.86;35.88
43071;BME280;36278;47.952;21.714;2023-03-20T13:50:46;100234.00;;;21.40;34.37
43071;BME280;36278;47.952;21.714;2023-03-20T13:53:28;100233.75;;;21.20;34.72
43071;BME280;36278;47.952;21.714;2023-03-20T14:01:27;100236.06;;;20.19;37.58
43071;BME280;36278;47.952;21.714;2023-03-20T14:03:54;100227.50;;;20.38;37.57
43071;BME280;36278;47.952;21.714;2023-03-20T14:08:53;100234.03;;;20.43;37.51
43071;BME280;36278;47.952;21.714;2023-03-20T14:13:47;100229.66;;;20.20;38.01
43071;BME280;36278;47.952;21.714;2023-03-20T14:16:16;100224.22;;;20.28;37.92
43071;BME280;36278;47.952;21.714;2023-03-20T14:18:46;100220.34;;;19.84;39.35
43071;BME280;36278;47.952;21.714;2023-03-20T14:21:17;100218.09;;;19.73;39.46
43071;BME280;36278;47.952;21.714;2023-03-20T14:24:01;100227.94;;;19.81;39.41
43071;BME280;36278;47.952;21.714;2023-03-20T14:26:34;100218.38;;;19.47;40.17
43071;BME280;36278;47.952;21.714;2023-03-20T14:31:47;100226.28;;;19.01;40.63
43071;BME280;36278;47.952;21.714;2023-03-20T14:34:16;100229.13;;;19.08;40.89
43071;BME280;36278;47.952;21.714;2023-03-20T14:37:01;100229.56;;;19.20;40.90
43071;BME280;36278;47.952;21.714;2023-03-20T14:39:47;100230.69;;;19.33;40.70
43071;BME280;36278;47.952;21.714;2023-03-20T14:50:17;100239.41;;;18.80;41.56
43071;BME280;36278;47.952;21.714;2023-03-20T14:56:12;100242.47;;;18.12;42.57
43071;BME280;36278;47.952;21.714;2023-03-20T15:01:07;100237.75;;;18.06;42.85
43071;BME280;36278;47.952;21.714;2023-03-20T15:03:36;100234.88;;;17.83;43.65
43071;BME280;36278;47.952;21.714;2023-03-20T15:06:05;100230.28;;;17.67;42.16
43071;BME280;36278;47.952;21.714;2023-03-20T15:08:34;100242.97;;;17.49;42.75
43071;BME280;36278;47.952;21.714;2023-03-20T15:11:06;100241.44;;;17.38;42.38
43071;BME280;36278;47.952;21.714;2023-03-20T15:13:35;100235.88;;;17.31;42.55